LHPP/PEV METAR and TAF weather

Enter ICAO airport designator
Station Type Date Time Source
LHPP METAR 2019/05/20 10:15 UTC NOAA

LHPP 201015Z 23009KT 9999 BKN023 SCT200 19/11 Q1006


Station Type Date Time Source
LHPP Decoded METAR 2019/05/20 10:15 UTC NOAA

Pecs / Pogany, Hungary (LHPP) 46-06N 018-14E 203M
May 20, 2019 - 06:15 AM EDT / 2019.05.20 1015 UTC
Wind: from the SW (230 degrees) at 10 MPH (9 KT):0
Visibility: greater than 7 mile(s):0
Sky conditions: mostly cloudy
Temperature: 66 F (19 C)
Dew Point: 51 F (11 C)
Relative Humidity: 59%
Pressure (altimeter): 29.71 in. Hg (1006 hPa)
ob: LHPP 201015Z 23009KT 9999 BKN023 SCT200 19/11 Q1006
cycle: 10

Station Type Date Time Source
LHPP TAF 2017/08/21 15:50 UTC NOAA

TAF LHPP 211700Z 2115/2214 CNL

Example: see airport list